createdAt,value
2022-11-09T00:02:16.543Z,27.33
2022-11-09T00:04:43.021Z,28.60
2022-11-09T00:07:09.405Z,28.83
2022-11-09T00:09:35.850Z,28.73
2022-11-09T00:12:04.767Z,24.90
2022-11-09T00:14:31.047Z,26.15
2022-11-09T00:16:57.329Z,25.73
2022-11-09T00:19:23.583Z,28.65
2022-11-09T00:21:49.853Z,28.20
2022-11-09T00:24:16.124Z,24.92
2022-11-09T00:26:44.204Z,24.17
2022-11-09T00:31:36.667Z,26.25
2022-11-09T00:34:02.935Z,26.63
2022-11-09T00:36:29.307Z,22.33
2022-11-09T00:38:55.568Z,26.98
2022-11-09T00:41:21.839Z,27.33
2022-11-09T00:43:48.098Z,27.42
2022-11-09T00:46:14.417Z,26.55
2022-11-09T00:48:40.761Z,29.02
2022-11-09T00:51:07.023Z,27.23
2022-11-09T00:53:33.296Z,26.75
2022-11-09T00:55:59.568Z,27.38
2022-11-09T00:58:25.850Z,25.08
2022-11-09T01:00:52.480Z,27.48
2022-11-09T01:03:20.515Z,28.55
2022-11-09T01:05:47.098Z,29.20
2022-11-09T01:08:13.442Z,31.02
2022-11-09T01:10:39.704Z,29.65
2022-11-09T01:13:06.011Z,27.05
2022-11-09T01:15:33.258Z,26.60
2022-11-09T01:17:59.520Z,27.83
2022-11-09T01:20:25.798Z,26.30
2022-11-09T01:22:52.072Z,27.83
2022-11-09T01:25:18.551Z,30.73
2022-11-09T01:27:44.812Z,27.25
2022-11-09T01:30:11.079Z,26.35
2022-11-09T01:32:37.353Z,27.42
2022-11-09T01:35:03.623Z,28.92
2022-11-09T01:37:29.895Z,26.65
2022-11-09T01:39:56.156Z,28.90
2022-11-09T01:42:22.739Z,25.25
2022-11-09T01:44:48.999Z,26.45
2022-11-09T01:47:15.251Z,27.33
2022-11-09T01:49:41.506Z,27.63
2022-11-09T01:52:07.763Z,29.42
2022-11-09T01:54:34.034Z,26.40
2022-11-09T01:57:00.293Z,27.02
2022-11-09T01:59:26.542Z,24.88
2022-11-09T02:01:52.804Z,26.40
2022-11-09T02:04:19.079Z,26.08
2022-11-09T02:06:45.451Z,28.15
2022-11-09T02:09:12.459Z,27.02
2022-11-09T02:11:38.723Z,24.88
2022-11-09T02:14:04.975Z,27.42
2022-11-09T02:16:31.288Z,29.58
2022-11-09T02:18:57.580Z,24.70
2022-11-09T02:21:24.034Z,29.70
2022-11-09T02:23:50.302Z,27.23
2022-11-09T02:26:16.584Z,26.23
2022-11-09T02:28:42.839Z,32.28
2022-11-09T02:31:09.301Z,29.42
2022-11-09T02:33:35.560Z,28.17
2022-11-09T02:36:01.826Z,30.30
2022-11-09T02:38:28.097Z,29.92
2022-11-09T02:40:54.366Z,26.02
2022-11-09T02:43:20.866Z,24.75
2022-11-09T02:45:47.444Z,23.63
2022-11-09T02:48:13.794Z,25.88
2022-11-09T02:50:40.054Z,26.80
2022-11-09T02:53:06.451Z,25.27
2022-11-09T02:55:32.698Z,29.38
2022-11-09T02:57:59.163Z,28.77
2022-11-09T03:00:25.423Z,25.95
2022-11-09T03:02:51.687Z,25.50
2022-11-09T03:05:17.958Z,24.63
2022-11-09T03:07:44.254Z,28.60
2022-11-09T03:10:12.140Z,26.55
2022-11-09T03:12:38.462Z,27.55
2022-11-09T03:15:04.808Z,25.60
2022-11-09T03:17:31.072Z,29.17
2022-11-09T03:19:57.539Z,28.58
2022-11-09T03:22:23.803Z,25.25
2022-11-09T03:24:50.102Z,25.67
2022-11-09T03:27:16.398Z,23.30
2022-11-09T03:29:42.660Z,26.05
2022-11-09T03:32:08.920Z,28.45
2022-11-09T03:34:35.251Z,25.70
2022-11-09T03:37:01.553Z,40.92
2022-11-09T03:39:27.981Z,24.02
2022-11-09T03:41:54.236Z,24.52
2022-11-09T03:44:20.577Z,25.58
2022-11-09T03:46:46.839Z,22.38
2022-11-09T03:49:13.315Z,23.95
2022-11-09T03:51:39.571Z,24.02
2022-11-09T03:54:05.850Z,26.42
2022-11-09T03:56:32.105Z,23.52
2022-11-09T03:58:58.518Z,26.42
2022-11-09T04:01:24.821Z,25.33
2022-11-09T04:03:51.242Z,22.98
2022-11-09T04:06:17.503Z,25.52
2022-11-09T04:08:48.381Z,24.80
2022-11-09T04:11:17.294Z,24.77
2022-11-09T04:13:43.628Z,24.42
2022-11-09T04:16:09.902Z,23.73
2022-11-09T04:18:36.259Z,26.50
2022-11-09T04:21:02.517Z,23.90
2022-11-09T04:23:28.806Z,25.33
2022-11-09T04:25:55.067Z,23.27
2022-11-09T04:28:21.318Z,27.60
2022-11-09T04:30:47.603Z,26.30
2022-11-09T04:33:14.055Z,24.27
2022-11-09T04:35:40.317Z,26.58
2022-11-09T04:38:06.627Z,30.38
2022-11-09T04:40:33.026Z,27.83
2022-11-09T04:42:59.300Z,25.67
2022-11-09T04:45:25.558Z,23.52
2022-11-09T04:47:51.812Z,22.83
2022-11-09T04:50:18.084Z,25.23
2022-11-09T04:52:44.346Z,25.13
2022-11-09T04:55:11.105Z,23.83
2022-11-09T04:57:37.380Z,23.25
2022-11-09T05:00:03.649Z,23.70
2022-11-09T05:02:29.915Z,26.60
2022-11-09T05:04:56.183Z,25.17
2022-11-09T05:07:22.434Z,25.83
2022-11-09T05:09:48.690Z,24.02
2022-11-09T05:12:14.950Z,26.20
2022-11-09T05:14:41.211Z,26.33
2022-11-09T05:17:08.734Z,24.83
2022-11-09T05:19:34.992Z,23.55
2022-11-09T05:22:19.772Z,26.90
2022-11-09T05:24:46.148Z,27.00
2022-11-09T05:27:12.680Z,24.77
2022-11-09T05:29:38.940Z,23.48
2022-11-09T05:32:05.206Z,24.80
2022-11-09T05:34:31.463Z,28.50
2022-11-09T05:37:03.133Z,24.15
2022-11-09T05:39:29.846Z,22.95
2022-11-09T05:41:56.124Z,25.45
2022-11-09T05:44:22.387Z,26.23
2022-11-09T05:46:48.684Z,26.50
2022-11-09T05:49:14.935Z,24.02
2022-11-09T05:51:41.204Z,25.75
2022-11-09T05:54:07.467Z,24.58
2022-11-09T05:56:33.737Z,22.15
2022-11-09T05:58:59.998Z,24.48
2022-11-09T06:01:26.344Z,24.23
2022-11-09T06:03:52.612Z,26.17
2022-11-09T06:06:18.866Z,23.75
2022-11-09T06:08:45.180Z,23.50
2022-11-09T06:11:11.477Z,26.23
2022-11-09T06:13:37.809Z,23.65
2022-11-09T06:16:04.155Z,24.38
2022-11-09T06:18:30.415Z,26.27
2022-11-09T06:20:57.156Z,25.50
2022-11-09T06:23:25.597Z,25.30
2022-11-09T06:25:51.872Z,24.88
2022-11-09T06:28:18.161Z,23.52
2022-11-09T06:30:44.426Z,25.15
2022-11-09T06:33:10.696Z,26.10
2022-11-09T06:35:37.320Z,26.13
2022-11-09T06:38:03.607Z,23.23
2022-11-09T06:40:30.069Z,23.23
2022-11-09T06:42:56.523Z,25.98
2022-11-09T06:45:22.782Z,25.27
2022-11-09T06:47:49.039Z,24.13
2022-11-09T06:50:15.366Z,27.02
2022-11-09T06:52:41.677Z,23.33
2022-11-09T06:55:08.279Z,24.15
2022-11-09T06:57:38.074Z,26.33
2022-11-09T07:00:04.342Z,24.25
2022-11-09T07:02:30.651Z,24.95
2022-11-09T07:04:56.968Z,26.92
2022-11-09T07:07:28.031Z,23.33
2022-11-09T07:09:55.768Z,25.67
2022-11-09T07:12:22.155Z,23.48
2022-11-09T07:14:48.411Z,27.23
2022-11-09T07:17:14.686Z,26.30
2022-11-09T07:19:40.936Z,28.50
2022-11-09T07:22:07.206Z,26.08
2022-11-09T07:24:33.466Z,24.85
2022-11-09T07:26:59.722Z,25.80
2022-11-09T07:29:26.001Z,24.85
2022-11-09T07:31:52.270Z,27.23
2022-11-09T07:34:18.541Z,25.00
2022-11-09T07:36:44.817Z,23.88
2022-11-09T07:39:11.111Z,23.77
2022-11-09T07:41:37.379Z,25.02
2022-11-09T07:44:03.664Z,24.83
2022-11-09T07:46:29.951Z,24.75
2022-11-09T07:48:56.210Z,24.33
2022-11-09T07:51:22.466Z,49.88
2022-11-09T07:53:48.778Z,26.48
2022-11-09T07:56:15.035Z,24.48
2022-11-09T07:58:41.326Z,26.40
2022-11-09T08:01:08.405Z,28.13
2022-11-09T08:03:34.612Z,26.17
2022-11-09T08:06:00.890Z,23.67
2022-11-09T08:08:27.157Z,29.13
2022-11-09T08:10:53.563Z,27.35
2022-11-09T08:13:20.141Z,27.50
2022-11-09T08:15:47.523Z,23.63
2022-11-09T08:18:13.720Z,25.47
2022-11-09T08:20:39.982Z,24.67
2022-11-09T08:23:06.344Z,25.10
2022-11-09T08:25:32.660Z,26.98
2022-11-09T08:27:58.959Z,24.67
2022-11-09T08:30:25.230Z,23.55
2022-11-09T08:32:51.536Z,22.63
2022-11-09T08:35:17.971Z,25.20
2022-11-09T08:37:44.291Z,23.88
2022-11-09T08:40:10.679Z,24.13
2022-11-09T08:42:36.951Z,25.83
2022-11-09T08:45:03.333Z,23.25
2022-11-09T08:47:29.646Z,26.40
2022-11-09T08:49:55.904Z,27.00
2022-11-09T08:52:22.472Z,24.92
2022-11-09T08:54:48.736Z,22.30
2022-11-09T08:57:15.057Z,25.35
2022-11-09T08:59:41.328Z,25.98
2022-11-09T09:02:07.651Z,24.35
2022-11-09T09:04:33.988Z,24.10
2022-11-09T09:07:00.426Z,24.40
2022-11-09T09:09:27.115Z,26.33
2022-11-09T09:11:53.370Z,24.45
2022-11-09T09:14:19.655Z,21.55
2022-11-09T09:16:45.917Z,22.08
2022-11-09T09:19:12.193Z,21.15
2022-11-09T09:21:38.492Z,25.25
2022-11-09T09:24:04.767Z,20.98
2022-11-09T09:26:31.295Z,25.75
2022-11-09T09:28:57.547Z,29.58
2022-11-09T09:31:24.070Z,22.58
2022-11-09T09:33:50.391Z,22.38
2022-11-09T09:36:16.674Z,22.80
2022-11-09T09:38:42.937Z,21.95
2022-11-09T09:41:09.191Z,21.77
2022-11-09T09:43:41.542Z,24.17
2022-11-09T09:46:09.200Z,23.58
2022-11-09T09:48:35.634Z,22.15
2022-11-09T09:51:01.958Z,23.08
2022-11-09T09:53:28.325Z,24.48
2022-11-09T09:55:54.663Z,25.08
2022-11-09T09:58:21.232Z,22.77
2022-11-09T10:00:47.834Z,22.95
2022-11-09T10:03:14.391Z,23.05
2022-11-09T10:05:40.659Z,24.13
2022-11-09T10:08:06.947Z,24.40
2022-11-09T10:10:33.221Z,24.42
2022-11-09T10:12:59.570Z,24.92
2022-11-09T10:15:25.826Z,24.42
2022-11-09T10:17:52.082Z,21.70
2022-11-09T10:20:18.340Z,22.50
2022-11-09T10:22:45.619Z,23.30
2022-11-09T10:25:37.573Z,22.70
2022-11-09T10:28:01.249Z,21.60
2022-11-09T10:30:27.589Z,23.17
2022-11-09T10:32:53.850Z,23.23
2022-11-09T10:35:20.611Z,21.67
2022-11-09T10:37:48.190Z,19.77
2022-11-09T10:40:16.743Z,20.02
2022-11-09T10:42:43.023Z,23.85
2022-11-09T10:45:09.315Z,20.20
2022-11-09T10:47:36.613Z,23.63
2022-11-09T10:50:02.871Z,23.00
2022-11-09T10:52:29.277Z,25.15
2022-11-09T10:54:55.601Z,22.45
2022-11-09T10:57:21.904Z,22.63
2022-11-09T10:59:48.161Z,25.30
2022-11-09T11:02:14.495Z,22.85
2022-11-09T11:04:40.822Z,23.30
2022-11-09T11:07:07.165Z,27.77
2022-11-09T11:09:33.581Z,27.20
2022-11-09T11:11:59.846Z,25.40
2022-11-09T11:14:26.173Z,24.23
2022-11-09T11:16:53.256Z,23.70
2022-11-09T11:19:19.691Z,24.73
2022-11-09T11:21:45.964Z,24.52
2022-11-09T11:24:12.337Z,24.65
2022-11-09T11:26:38.620Z,23.73
2022-11-09T11:29:04.959Z,24.88
2022-11-09T11:31:31.238Z,25.98
2022-11-09T11:33:57.615Z,23.08
2022-11-09T11:36:23.915Z,24.27
2022-11-09T11:38:50.243Z,22.90
2022-11-09T11:41:16.617Z,24.65
2022-11-09T11:43:42.891Z,24.77
2022-11-09T11:46:09.166Z,21.40
2022-11-09T11:48:35.791Z,26.35
2022-11-09T11:51:02.107Z,22.33
2022-11-09T11:53:28.438Z,24.27
2022-11-09T11:55:54.704Z,24.30
2022-11-09T11:58:21.038Z,23.05
2022-11-09T12:00:47.534Z,22.70
2022-11-09T12:03:15.023Z,23.45
2022-11-09T12:05:41.382Z,22.85
2022-11-09T12:08:11.020Z,22.30
2022-11-09T12:10:37.893Z,23.83
2022-11-09T12:13:04.170Z,32.10
2022-11-09T12:15:30.487Z,22.73
2022-11-09T12:17:56.786Z,19.52
2022-11-09T12:20:23.102Z,21.52
2022-11-09T12:22:53.168Z,22.17
2022-11-09T12:25:19.543Z,20.92
2022-11-09T12:27:45.811Z,24.17
2022-11-09T12:30:12.935Z,22.60
2022-11-09T12:32:39.135Z,24.77
2022-11-09T12:35:05.405Z,23.30
2022-11-09T12:37:31.662Z,22.60
2022-11-09T12:39:57.982Z,22.38
2022-11-09T12:45:30.351Z,23.65
2022-11-09T12:47:57.861Z,23.67
2022-11-09T12:50:27.931Z,24.70
2022-11-09T12:52:54.252Z,24.83
2022-11-09T12:55:20.595Z,22.55
2022-11-09T12:57:46.864Z,21.65
2022-11-09T13:00:13.198Z,22.05
2022-11-09T13:02:39.485Z,24.42
2022-11-09T13:05:05.764Z,24.80
2022-11-09T13:07:32.203Z,23.58
2022-11-09T13:09:58.528Z,26.85
2022-11-09T13:12:24.797Z,24.60
2022-11-09T13:14:51.088Z,25.20
2022-11-09T13:17:17.378Z,23.58
2022-11-09T13:19:43.772Z,26.73
2022-11-09T13:22:10.036Z,24.45
2022-11-09T13:24:36.304Z,24.48
2022-11-09T13:27:02.750Z,25.77
2022-11-09T13:29:29.061Z,27.58
2022-11-09T13:31:55.326Z,26.83
2022-11-09T13:34:21.620Z,26.98
2022-11-09T13:36:50.838Z,28.45
2022-11-09T13:39:17.127Z,24.25
2022-11-09T13:41:43.449Z,25.58
2022-11-09T13:44:09.706Z,24.52
2022-11-09T13:46:35.985Z,23.83
2022-11-09T13:49:02.264Z,28.10
2022-11-09T13:51:28.797Z,22.83
2022-11-09T13:53:55.067Z,23.50
2022-11-09T13:56:26.122Z,24.83
2022-11-09T13:58:53.633Z,23.17
2022-11-09T14:01:19.936Z,23.70
2022-11-09T14:03:46.504Z,26.38
2022-11-09T14:06:13.508Z,23.73
2022-11-09T14:08:40.866Z,27.73
2022-11-09T14:14:02.074Z,26.52
2022-11-09T14:16:29.600Z,25.20
2022-11-09T14:18:56.213Z,23.23
2022-11-09T14:21:22.771Z,32.08
2022-11-09T14:23:49.292Z,24.92
2022-11-09T14:26:15.599Z,27.45
2022-11-09T14:31:31.898Z,25.30
2022-11-09T14:33:58.167Z,26.35
2022-11-09T14:36:24.431Z,29.63
2022-11-09T14:38:50.759Z,23.55
2022-11-09T14:41:17.045Z,29.33
2022-11-09T14:43:43.309Z,28.35
2022-11-09T14:48:59.542Z,34.78
2022-11-09T14:51:25.806Z,32.17
2022-11-09T14:53:52.145Z,28.60
2022-11-09T14:56:18.400Z,29.75
2022-11-09T14:58:48.195Z,28.00
2022-11-09T15:01:14.455Z,29.35
2022-11-09T15:03:40.721Z,28.50
2022-11-09T15:06:07.350Z,27.88
2022-11-09T15:08:33.759Z,26.88
2022-11-09T15:11:00.053Z,27.95
2022-11-09T15:13:26.325Z,26.70
2022-11-09T15:15:55.896Z,28.40
2022-11-09T15:18:22.859Z,26.70
2022-11-09T15:20:49.757Z,28.10
2022-11-09T15:23:16.029Z,31.48
2022-11-09T15:25:42.297Z,39.33
2022-11-09T15:28:08.573Z,30.17
2022-11-09T15:30:34.893Z,30.45
2022-11-09T15:33:01.161Z,30.02
2022-11-09T15:35:27.424Z,26.63
2022-11-09T15:37:54.752Z,30.58
2022-11-09T15:40:21.036Z,30.38
2022-11-09T15:42:47.312Z,29.95
2022-11-09T15:45:13.600Z,31.73
2022-11-09T15:47:39.960Z,27.73
2022-11-09T15:50:06.276Z,28.42
2022-11-09T15:52:32.592Z,32.10
2022-11-09T15:54:58.849Z,29.80
2022-11-09T15:57:25.133Z,29.33
2022-11-09T15:59:51.416Z,30.77
2022-11-09T16:02:22.908Z,35.22
2022-11-09T16:04:49.176Z,29.27
2022-11-09T16:07:15.509Z,31.38
2022-11-09T16:09:41.885Z,30.85
2022-11-09T16:12:08.183Z,31.95
2022-11-09T16:14:34.456Z,28.40
2022-11-09T16:17:00.718Z,29.17
2022-11-09T16:19:28.997Z,42.42
2022-11-09T16:21:55.263Z,31.13
2022-11-09T16:24:21.586Z,34.33
2022-11-09T16:26:47.908Z,26.10
2022-11-09T16:29:14.185Z,29.67
2022-11-09T16:31:51.292Z,27.40
2022-11-09T16:34:17.907Z,28.83
2022-11-09T16:36:50.844Z,28.40
2022-11-09T16:39:18.721Z,24.85
2022-11-09T16:41:44.987Z,35.28
2022-11-09T16:44:11.253Z,31.98
2022-11-09T16:46:37.524Z,28.75
2022-11-09T16:49:04.015Z,29.50
2022-11-09T16:51:30.278Z,26.23
2022-11-09T16:53:56.530Z,24.35
2022-11-09T16:56:22.790Z,40.55
2022-11-09T16:58:49.052Z,28.55
2022-11-09T17:01:17.717Z,28.40
2022-11-09T17:03:48.455Z,24.90
2022-11-09T17:06:15.064Z,25.88
2022-11-09T17:08:41.328Z,27.75
2022-11-09T17:11:07.776Z,25.27
2022-11-09T17:13:34.047Z,29.13
2022-11-09T17:16:00.298Z,26.65
2022-11-09T17:18:26.616Z,29.00
2022-11-09T17:20:52.888Z,30.50
2022-11-09T17:23:19.213Z,33.35
2022-11-09T17:25:45.475Z,27.20
2022-11-09T17:28:11.743Z,26.73
2022-11-09T17:30:37.995Z,27.00
2022-11-09T17:33:04.283Z,27.75
2022-11-09T17:35:36.371Z,29.90
2022-11-09T17:38:02.627Z,24.70
2022-11-09T17:40:28.898Z,26.85
2022-11-09T17:42:56.907Z,26.50
2022-11-09T17:47:53.089Z,30.23
2022-11-09T17:50:21.199Z,26.88
2022-11-09T17:55:13.640Z,23.02
2022-11-09T17:57:39.904Z,27.08
2022-11-09T18:00:06.382Z,27.00
2022-11-09T18:02:33.929Z,29.67
2022-11-09T18:07:50.964Z,29.40
2022-11-09T18:10:17.232Z,25.38
2022-11-09T18:12:43.610Z,25.25
2022-11-09T18:15:09.875Z,24.27
2022-11-09T18:17:36.304Z,26.65
2022-11-09T18:20:02.568Z,31.38
2022-11-09T18:22:28.825Z,27.98
2022-11-09T18:24:55.097Z,29.35
2022-11-09T18:27:23.775Z,24.48
2022-11-09T18:29:56.212Z,26.38
2022-11-09T18:32:22.495Z,27.35
2022-11-09T18:34:48.755Z,24.48
2022-11-09T18:37:15.020Z,25.60
2022-11-09T18:39:41.296Z,23.50
2022-11-09T18:42:07.586Z,25.63
2022-11-09T18:44:33.943Z,24.90
2022-11-09T18:47:05.044Z,27.63
2022-11-09T18:49:31.966Z,25.63
2022-11-09T18:51:59.038Z,25.05
2022-11-09T18:54:25.252Z,24.55
2022-11-09T18:56:51.524Z,25.02
2022-11-09T18:59:17.783Z,24.60
2022-11-09T19:01:44.051Z,25.77
2022-11-09T19:04:11.408Z,28.00
2022-11-09T19:06:37.713Z,25.58
2022-11-09T19:09:22.784Z,25.02
2022-11-09T19:11:49.072Z,25.98
2022-11-09T19:14:15.341Z,24.73
2022-11-09T19:16:41.600Z,27.00
2022-11-09T19:19:07.859Z,25.58
2022-11-09T19:21:37.844Z,28.52
2022-11-09T19:24:04.100Z,29.05
2022-11-09T19:26:30.410Z,29.67
2022-11-09T19:28:56.679Z,23.65
2022-11-09T19:31:22.961Z,32.92
2022-11-09T19:33:49.421Z,28.05
2022-11-09T19:36:29.796Z,29.75
2022-11-09T19:38:57.449Z,27.27
2022-11-09T19:41:24.659Z,27.40
2022-11-09T19:43:50.915Z,25.25
2022-11-09T19:46:17.245Z,30.33
2022-11-09T19:48:43.512Z,27.02
2022-11-09T19:51:09.962Z,27.80
2022-11-09T19:53:42.027Z,28.98
2022-11-09T19:56:08.739Z,30.88
2022-11-09T19:58:35.003Z,29.83
2022-11-09T20:01:01.300Z,28.13
2022-11-09T20:03:27.598Z,25.42
2022-11-09T20:05:53.850Z,28.25
2022-11-09T20:08:20.385Z,24.42
2022-11-09T20:10:46.896Z,27.60
2022-11-09T20:13:13.248Z,29.90
2022-11-09T20:15:39.510Z,28.45
2022-11-09T20:18:05.778Z,26.92
2022-11-09T20:20:34.029Z,27.08
2022-11-09T20:23:00.367Z,27.95
2022-11-09T20:25:26.778Z,27.08
2022-11-09T20:27:53.045Z,30.50
2022-11-09T20:30:19.524Z,26.67
2022-11-09T20:32:45.788Z,28.17
2022-11-09T20:35:12.099Z,28.63
2022-11-09T20:37:38.379Z,24.48
2022-11-09T20:40:07.846Z,24.25
2022-11-09T20:42:34.104Z,24.92
2022-11-09T20:45:00.377Z,25.08
2022-11-09T20:47:57.195Z,31.63
2022-11-09T20:50:13.790Z,30.48
2022-11-09T20:52:39.979Z,32.30
2022-11-09T20:55:06.807Z,33.25
2022-11-09T20:57:33.069Z,28.17
2022-11-09T20:59:59.930Z,32.33
2022-11-09T21:02:26.203Z,31.77
2022-11-09T21:04:52.463Z,29.67
2022-11-09T21:07:18.731Z,34.60
2022-11-09T21:09:44.996Z,32.50
2022-11-09T21:12:24.690Z,31.45
2022-11-09T21:14:51.072Z,31.10
2022-11-09T21:17:17.353Z,28.38
2022-11-09T21:19:43.601Z,32.38
2022-11-09T21:22:10.029Z,32.88
2022-11-09T21:24:55.127Z,29.92
2022-11-09T21:27:44.217Z,33.35
2022-11-09T21:30:14.350Z,30.98
2022-11-09T21:32:40.599Z,29.02
2022-11-09T21:35:07.149Z,30.17
2022-11-09T21:37:33.424Z,31.15
2022-11-09T21:39:59.855Z,34.13
2022-11-09T21:42:26.150Z,28.98
2022-11-09T21:44:52.416Z,31.73
2022-11-09T21:47:18.743Z,33.10
2022-11-09T21:49:45.026Z,34.50
2022-11-09T21:52:11.293Z,31.75
2022-11-09T21:54:37.600Z,31.42
2022-11-09T21:57:03.863Z,35.40
2022-11-09T21:59:30.123Z,30.30
2022-11-09T22:01:56.444Z,32.92
2022-11-09T22:04:22.752Z,34.88
2022-11-09T22:06:49.035Z,31.33
2022-11-09T22:09:15.395Z,34.60
2022-11-09T22:12:00.209Z,39.35
2022-11-09T22:14:44.966Z,33.25
2022-11-09T22:17:12.435Z,38.60
2022-11-09T22:19:57.201Z,35.83
2022-11-09T22:22:23.465Z,36.47
2022-11-09T22:24:51.718Z,42.05
2022-11-09T22:27:17.976Z,36.75
2022-11-09T22:29:44.304Z,38.40
2022-11-09T22:32:10.565Z,45.10
2022-11-09T22:34:36.847Z,42.03
2022-11-09T22:37:03.105Z,40.50
2022-11-09T22:39:29.379Z,42.10
2022-11-09T22:41:55.640Z,36.85
2022-11-09T22:44:21.914Z,34.15
2022-11-09T22:46:48.170Z,36.10
2022-11-09T22:49:14.463Z,36.20
2022-11-09T22:51:40.734Z,36.55
2022-11-09T22:54:07.008Z,33.38
2022-11-09T22:56:33.293Z,35.22
2022-11-09T22:58:59.577Z,34.45
2022-11-09T23:01:25.924Z,34.97
2022-11-09T23:03:52.282Z,35.08
2022-11-09T23:06:21.271Z,35.53
2022-11-09T23:08:47.535Z,37.45
2022-11-09T23:11:13.795Z,34.63
2022-11-09T23:13:40.046Z,34.40
2022-11-09T23:16:06.302Z,36.25
2022-11-09T23:18:51.271Z,36.63
2022-11-09T23:21:17.544Z,31.58
2022-11-09T23:23:43.812Z,33.35
2022-11-09T23:26:10.069Z,32.35
2022-11-09T23:28:36.354Z,34.25
2022-11-09T23:31:02.655Z,33.03
2022-11-09T23:33:28.912Z,33.88
2022-11-09T23:35:55.240Z,37.95
2022-11-09T23:38:21.511Z,33.47
2022-11-09T23:40:47.794Z,32.80
2022-11-09T23:43:14.112Z,31.13
2022-11-09T23:45:40.402Z,34.75
2022-11-09T23:48:06.652Z,34.00
2022-11-09T23:50:33.130Z,32.67
2022-11-09T23:52:59.387Z,34.70
2022-11-09T23:55:25.659Z,35.47
2022-11-09T23:57:51.932Z,34.00
